LHSNLQSA

Guest
Details From LHSN - SZOLNOK
To LQSA - Sarajevo
Flight Number -
Tags generated
Created
Modified
Stats Distance 219 nm / 405 km
Max Altitude 24,100 ft / 7,346 m
Waypoints 4
Social Downloads 1
Likes 0
Share VATSIM

Download

Looking for another format? Having issues loading an existing format? Contact us
Advertisement - Login to hide

Notes

Basic altitude profile: - Ascent Rate: 2500ft/min - Ascent Speed: 250kts - Cruise Altitude: 35000ft - Cruise Speed: 420kts - Descent Rate: 1500ft/min - Descent Speed: 250kts Options: - Use NATs: yes - Use PACOTS: yes - Use low airways: yes - Use high airways: yes

Route

LHSN LULIK M127 TADAM LQSA

ID Type Via Altitude Latitude Longitude Leg Dist Tot Dist Heading (true) Name
O LHSN APT - 0 ft / 0 m 47.12286˚ 20.23550˚ - 0 nm - SZOLNOK
LULIK FIX - 24,100 ft / 7,346 m 45.52664˚ 19.44428˚ 101 nm 101 nm 199° / 199° -
TADAM FIX M127 (AWY-LO) 21,400 ft / 6,523 m 45.24711˚ 19.54606˚ 17 nm 118 nm 166° / 166° -
O LQSA APT - 0 ft / 0 m 43.82460˚ 18.33150˚ 100 nm 218 nm 212° / 211° Sarajevo

Altitude Profile

Advertisement - Login to hide

Weather


0- 5 10 15 20 25 30 35+ Temperature / ° C

Clouds and Precipitation
Forecast for 2017-12-15 06:00 UTC. Updated an hour ago

Ground ~20,000 ft ~40,000 ft Winds

LHSN

Details ICAO LHSN
Name SZOLNOK
Region Hungary
Timezone Europe/Budapest (UTC+1.0)
Stats Elevation 322 ft / 98 m (AMSL)
Location 47.122859° 20.235500°
Runways 1
Magnetic Variation 4.923° E

METAR

LHSN 150415Z 19014KT 9999 -RA FEW020 OVC040 07/07 Q1002 NOSIG RMK BLU

Decode

TAF

Not found

Departure Runways

ID Width Length Bearing (true) Bearing (mag) Surface Threshold Offset Overrun Length
02 229 ft / 70 m 6,565 ft / 2,001 m 20.94° 16.02° Asphalt 0 ft / 0 m 0 ft / 0 m
20 229 ft / 70 m 6,565 ft / 2,001 m 200.94° 196.02° Asphalt 0 ft / 0 m 0 ft / 0 m

LQSA

Details ICAO LQSA (SJJ)
Name Sarajevo
Region Bosnia and Herzegovinia
Timezone Europe/Sarajevo (UTC+1.0)
Stats Elevation 1,708 ft / 521 m (AMSL)
Location 43.824597° 18.331500°
Runways 1
Magnetic Variation 4.222° E

METAR

LQSA 150400Z 09004KT 030V140 9999 SCT050 10/04 Q1006

Decode

TAF

Not found

Destination Runways

ID Width Length Bearing (true) Bearing (mag) Surface Threshold Offset Overrun Length
12 150 ft / 46 m 8,519 ft / 2,597 m 117.41° 113.19° Asphalt 333 ft / 102 m 0 ft / 0 m
30 150 ft / 46 m 8,519 ft / 2,597 m 297.43° 293.21° Asphalt 666 ft / 203 m 0 ft / 0 m

Approach Navaids

Runway Type Ident Frequency Range Bearing (true) Bearing (mag) Slope Elevation
12 Localiser BHS 110.70 MHz 25 nm / 46 km 117.00° 112.78° - 1,709 ft / 521 m (AMSL)
12 Glidescope BHS 110.70 MHz 25 nm / 46 km 117.00° 112.78° 3.20° 1,705 ft / 520 m (AMSL)
12 DME BHS 110.70 MHz 25 nm / 46 km - - - 1,705 ft / 520 m (AMSL)